createdAt,value
2023-04-23T00:01:09.690Z,11.80
2023-04-23T00:03:37.459Z,11.70
2023-04-23T00:06:05.780Z,11.70
2023-04-23T00:08:33.260Z,11.70
2023-04-23T00:11:01.575Z,11.70
2023-04-23T00:13:28.762Z,11.70
2023-04-23T00:15:56.208Z,11.70
2023-04-23T00:18:23.201Z,11.70
2023-04-23T00:20:50.103Z,11.70
2023-04-23T00:23:17.306Z,11.70
2023-04-23T00:25:44.606Z,11.70
2023-04-23T00:28:11.932Z,11.70
2023-04-23T00:30:39.201Z,11.70
2023-04-23T00:33:06.506Z,11.60
2023-04-23T00:35:33.862Z,11.60
2023-04-23T00:38:00.906Z,11.60
2023-04-23T00:40:28.181Z,11.70
2023-04-23T00:42:57.374Z,11.70
2023-04-23T00:45:24.787Z,11.70
2023-04-23T00:47:51.880Z,11.60
2023-04-23T00:50:18.899Z,11.60
2023-04-23T00:52:46.169Z,11.60
2023-04-23T00:55:13.111Z,11.50
2023-04-23T00:57:40.057Z,11.50
2023-04-23T01:00:07.808Z,11.40
2023-04-23T01:02:36.827Z,11.40
2023-04-23T01:05:05.193Z,11.30
2023-04-23T01:07:33.968Z,11.20
2023-04-23T01:10:01.377Z,11.10
2023-04-23T01:12:29.657Z,11.10
2023-04-23T01:14:56.939Z,11.20
2023-04-23T01:17:23.717Z,11.10
2023-04-23T01:19:51.243Z,11.10
2023-04-23T01:22:18.788Z,11.10
2023-04-23T01:24:45.666Z,11.10
2023-04-23T01:27:12.606Z,11.10
2023-04-23T01:29:39.498Z,11.10
2023-04-23T01:32:07.563Z,11.10
2023-04-23T01:34:38.929Z,11.20
2023-04-23T01:37:06.139Z,11.20
2023-04-23T01:39:33.451Z,11.20
2023-04-23T01:42:01.323Z,11.30
2023-04-23T01:44:28.570Z,11.30
2023-04-23T01:46:56.571Z,11.30
2023-04-23T01:49:24.103Z,11.30
2023-04-23T01:51:50.978Z,11.30
2023-04-23T01:54:17.681Z,11.20
2023-04-23T01:56:44.609Z,11.20
2023-04-23T01:59:11.703Z,11.30
2023-04-23T02:01:46.982Z,11.30
2023-04-23T02:04:15.403Z,11.30
2023-04-23T02:06:43.287Z,11.30
2023-04-23T02:09:10.534Z,11.40
2023-04-23T02:11:37.488Z,11.40
2023-04-23T02:14:04.708Z,11.50
2023-04-23T02:16:31.421Z,11.50
2023-04-23T02:18:58.402Z,11.50
2023-04-23T02:21:27.886Z,11.40
2023-04-23T02:23:54.900Z,11.40
2023-04-23T02:26:22.979Z,11.30
2023-04-23T02:28:49.964Z,11.30
2023-04-23T02:31:17.835Z,11.30
2023-04-23T02:33:44.773Z,11.30
2023-04-23T02:36:12.549Z,11.20
2023-04-23T02:38:42.437Z,11.30
2023-04-23T02:41:09.355Z,11.20
2023-04-23T02:43:36.431Z,11.20
2023-04-23T02:46:09.895Z,11.20
2023-04-23T02:48:38.703Z,11.30
2023-04-23T02:51:06.627Z,11.30
2023-04-23T02:53:33.633Z,11.30
2023-04-23T02:56:02.700Z,11.20
2023-04-23T02:58:31.277Z,11.20
2023-04-23T03:01:00.646Z,11.30
2023-04-23T03:03:32.251Z,11.30
2023-04-23T03:06:01.201Z,11.30
2023-04-23T03:08:28.218Z,11.30
2023-04-23T03:10:55.311Z,11.20
2023-04-23T03:13:22.530Z,11.20
2023-04-23T03:15:52.255Z,11.20
2023-04-23T03:18:19.014Z,11.30
2023-04-23T03:20:48.877Z,11.30
2023-04-23T03:23:16.957Z,11.20
2023-04-23T03:25:45.428Z,11.30
2023-04-23T03:28:12.217Z,11.30
2023-04-23T03:30:39.968Z,11.30
2023-04-23T03:33:06.911Z,11.30
2023-04-23T03:35:34.220Z,11.30
2023-04-23T03:38:04.275Z,11.30
2023-04-23T03:40:32.062Z,11.30
2023-04-23T03:43:03.000Z,11.30
2023-04-23T03:46:02.498Z,11.20
2023-04-23T03:48:32.740Z,11.20
2023-04-23T03:51:03.083Z,11.20
2023-04-23T03:53:45.626Z,11.20
2023-04-23T03:56:30.838Z,11.20
2023-04-23T03:59:16.527Z,11.20
2023-04-23T04:01:45.044Z,11.20
2023-04-23T04:04:13.810Z,11.10
2023-04-23T04:06:41.183Z,11.10
2023-04-23T04:09:09.328Z,11.10
2023-04-23T04:11:37.015Z,11.10
2023-04-23T04:14:03.879Z,11.10
2023-04-23T04:16:30.668Z,11.10
2023-04-23T04:18:57.439Z,11.10
2023-04-23T04:21:24.187Z,11.10
2023-04-23T04:23:51.217Z,11.00
2023-04-23T04:26:19.160Z,11.10
2023-04-23T04:28:46.620Z,11.00
2023-04-23T04:31:15.917Z,11.00
2023-04-23T04:33:43.461Z,11.00
2023-04-23T04:36:10.390Z,11.00
2023-04-23T04:38:40.077Z,11.00
2023-04-23T04:41:07.847Z,11.00
2023-04-23T04:43:34.918Z,11.10
2023-04-23T04:46:01.766Z,11.10
2023-04-23T04:48:28.598Z,11.10
2023-04-23T04:50:55.681Z,11.10
2023-04-23T04:53:22.865Z,11.10
2023-04-23T04:55:50.167Z,11.00
2023-04-23T04:58:17.146Z,11.00
2023-04-23T05:00:44.678Z,11.00
2023-04-23T05:03:14.275Z,11.00
2023-04-23T05:05:42.582Z,11.00
2023-04-23T05:08:09.928Z,11.00
2023-04-23T05:10:36.864Z,11.00
2023-04-23T05:13:03.611Z,11.10
2023-04-23T05:15:30.374Z,11.10
2023-04-23T05:17:57.692Z,11.00
2023-04-23T05:20:24.761Z,11.10
2023-04-23T05:22:52.164Z,11.00
2023-04-23T05:25:19.538Z,11.00
2023-04-23T05:27:46.864Z,10.90
2023-04-23T05:30:13.660Z,10.90
2023-04-23T05:32:40.652Z,10.90
2023-04-23T05:35:08.628Z,10.90
2023-04-23T05:37:36.080Z,10.80
2023-04-23T05:40:02.902Z,10.90
2023-04-23T05:42:29.616Z,10.90
2023-04-23T05:44:56.571Z,11.00
2023-04-23T05:47:23.322Z,11.00
2023-04-23T05:49:50.234Z,11.00
2023-04-23T05:52:17.280Z,11.00
2023-04-23T05:54:44.376Z,11.00
2023-04-23T05:57:12.288Z,11.10
2023-04-23T05:59:39.007Z,11.10
2023-04-23T06:02:06.042Z,11.10
2023-04-23T06:04:33.325Z,11.10
2023-04-23T06:07:00.745Z,11.10
2023-04-23T06:09:27.690Z,11.10
2023-04-23T06:11:55.004Z,11.20
2023-04-23T06:14:22.120Z,11.10
2023-04-23T06:16:48.985Z,11.20
2023-04-23T06:19:15.914Z,11.20
2023-04-23T06:21:42.743Z,11.20
2023-04-23T06:24:10.109Z,11.30
2023-04-23T06:26:37.149Z,11.20
2023-04-23T06:29:11.466Z,11.30
2023-04-23T06:31:50.829Z,11.30
2023-04-23T06:34:18.238Z,11.30
2023-04-23T06:36:45.649Z,11.30
2023-04-23T06:39:12.743Z,11.30
2023-04-23T06:41:39.639Z,11.40
2023-04-23T06:44:21.462Z,11.40
2023-04-23T06:46:54.331Z,11.40
2023-04-23T06:49:21.696Z,11.40
2023-04-23T06:51:48.672Z,11.40
2023-04-23T06:54:15.818Z,11.50
2023-04-23T06:56:42.749Z,11.50
2023-04-23T06:59:09.702Z,11.50
2023-04-23T07:01:44.812Z,11.40
2023-04-23T07:04:11.789Z,11.60
2023-04-23T07:06:38.516Z,11.60
2023-04-23T07:09:05.898Z,11.70
2023-04-23T07:11:35.068Z,11.70
2023-04-23T07:14:04.426Z,11.70
2023-04-23T07:16:33.902Z,11.70
2023-04-23T07:19:04.371Z,11.80
2023-04-23T07:21:33.159Z,11.90
2023-04-23T07:24:03.533Z,12.00
2023-04-23T07:26:30.494Z,12.20
2023-04-23T07:28:58.498Z,12.20
2023-04-23T07:31:25.343Z,12.30
2023-04-23T07:33:52.588Z,12.30
2023-04-23T07:36:19.853Z,12.30
2023-04-23T07:38:46.843Z,12.30
2023-04-23T07:41:14.023Z,12.40
2023-04-23T07:43:41.406Z,12.40
2023-04-23T07:46:08.624Z,12.50
2023-04-23T07:48:35.895Z,12.60
2023-04-23T07:51:03.805Z,12.80
2023-04-23T07:53:30.569Z,12.90
2023-04-23T07:55:57.638Z,12.90
2023-04-23T07:58:25.692Z,13.00
2023-04-23T08:00:52.439Z,12.80
2023-04-23T08:03:19.658Z,12.80
2023-04-23T08:05:47.001Z,12.80
2023-04-23T08:08:14.179Z,12.90
2023-04-23T08:10:41.277Z,12.90
2023-04-23T08:13:08.110Z,13.00
2023-04-23T08:15:35.199Z,12.90
2023-04-23T08:18:02.937Z,12.80
2023-04-23T08:20:30.112Z,12.90
2023-04-23T08:22:57.324Z,12.90
2023-04-23T08:25:24.121Z,13.00
2023-04-23T08:27:50.936Z,13.10
2023-04-23T08:30:17.613Z,13.00
2023-04-23T08:32:44.260Z,13.00
2023-04-23T08:35:10.962Z,13.10
2023-04-23T08:37:38.967Z,13.20
2023-04-23T08:40:07.469Z,13.20
2023-04-23T08:42:47.265Z,13.20
2023-04-23T08:45:13.938Z,13.30
2023-04-23T08:47:44.424Z,13.30
2023-04-23T08:50:17.759Z,13.40
2023-04-23T08:52:52.642Z,13.60
2023-04-23T08:55:19.785Z,13.70
2023-04-23T08:57:46.587Z,13.80
2023-04-23T09:00:13.952Z,13.90
2023-04-23T09:02:42.435Z,13.80
2023-04-23T09:05:09.582Z,14.00
2023-04-23T09:07:36.432Z,14.00
2023-04-23T09:10:04.099Z,14.10
2023-04-23T09:12:30.799Z,14.00
2023-04-23T09:14:57.563Z,14.00
2023-04-23T09:17:25.325Z,13.90
2023-04-23T09:19:52.920Z,13.90
2023-04-23T09:22:52.389Z,13.70
2023-04-23T09:25:20.366Z,13.90
2023-04-23T09:27:48.024Z,14.30
2023-04-23T09:30:14.986Z,14.70
2023-04-23T09:32:42.629Z,14.70
2023-04-23T09:35:10.523Z,14.70
2023-04-23T09:37:37.186Z,14.80
2023-04-23T09:40:09.264Z,14.80
2023-04-23T09:42:36.609Z,14.80
2023-04-23T09:45:05.593Z,15.00
2023-04-23T09:47:33.790Z,15.00
2023-04-23T09:50:00.805Z,14.90
2023-04-23T09:52:28.637Z,15.10
2023-04-23T09:55:01.415Z,15.10
2023-04-23T09:57:28.109Z,15.10
2023-04-23T10:00:03.737Z,15.10
2023-04-23T10:02:39.890Z,15.30
2023-04-23T10:05:24.224Z,15.50
2023-04-23T10:07:52.435Z,15.60
2023-04-23T10:10:19.666Z,15.60
2023-04-23T10:12:54.893Z,15.50
2023-04-23T10:15:23.499Z,15.90
2023-04-23T10:17:51.075Z,16.30
2023-04-23T10:20:17.979Z,16.30
2023-04-23T10:22:45.282Z,16.10
2023-04-23T10:25:12.371Z,16.10
2023-04-23T10:27:53.085Z,16.40
2023-04-23T10:30:20.794Z,16.50
2023-04-23T10:32:48.316Z,16.60
2023-04-23T10:35:15.066Z,16.70
2023-04-23T10:37:41.749Z,17.00
2023-04-23T10:40:12.691Z,17.20
2023-04-23T10:42:40.576Z,17.30
2023-04-23T10:47:48.059Z,17.30
2023-04-23T10:51:00.341Z,17.20
2023-04-23T10:53:29.566Z,17.30
2023-04-23T10:56:07.699Z,17.60
2023-04-23T10:58:48.527Z,17.60
2023-04-23T11:01:16.509Z,17.40
2023-04-23T11:03:44.905Z,17.30
2023-04-23T11:06:37.441Z,17.20
2023-04-23T11:09:07.268Z,17.20
2023-04-23T11:11:41.062Z,17.30
2023-04-23T11:14:16.563Z,17.40
2023-04-23T11:16:43.346Z,17.30
2023-04-23T11:19:16.669Z,17.20
2023-04-23T11:22:04.570Z,17.00
2023-04-23T11:24:33.407Z,16.90
2023-04-23T11:27:00.235Z,17.00
2023-04-23T11:29:27.716Z,17.10
2023-04-23T11:32:02.645Z,16.90
2023-04-23T11:34:30.124Z,16.90
2023-04-23T11:36:56.987Z,16.90
2023-04-23T11:39:24.267Z,16.80
2023-04-23T11:41:52.234Z,16.80
2023-04-23T11:44:20.637Z,16.90
2023-04-23T11:46:48.999Z,17.00
2023-04-23T11:49:16.832Z,17.10
2023-04-23T11:51:44.417Z,17.20
2023-04-23T11:54:12.031Z,17.20
2023-04-23T11:56:38.797Z,16.90
2023-04-23T11:59:05.794Z,17.00
2023-04-23T12:01:49.181Z,17.30
2023-04-23T12:04:20.418Z,17.70
2023-04-23T12:06:48.153Z,18.10
2023-04-23T12:09:17.111Z,18.10
2023-04-23T12:11:44.236Z,18.20
2023-04-23T12:14:11.382Z,18.20
2023-04-23T12:16:45.673Z,18.10
2023-04-23T12:19:20.422Z,17.80
2023-04-23T12:21:57.253Z,17.40
2023-04-23T12:24:28.167Z,17.10
2023-04-23T12:26:56.522Z,16.90
2023-04-23T12:29:23.308Z,16.60
2023-04-23T12:31:52.046Z,16.40
2023-04-23T12:34:20.088Z,16.20
2023-04-23T12:36:54.655Z,16.30
2023-04-23T12:39:27.383Z,16.30
2023-04-23T12:41:59.981Z,16.20
2023-04-23T12:44:26.671Z,16.20
2023-04-23T12:46:57.681Z,16.40
2023-04-23T12:49:26.990Z,16.40
2023-04-23T12:51:57.295Z,16.40
2023-04-23T12:54:25.509Z,16.40
2023-04-23T12:56:52.682Z,16.30
2023-04-23T12:59:19.443Z,16.30
2023-04-23T13:01:46.350Z,16.20
2023-04-23T13:04:13.284Z,16.30
2023-04-23T13:06:40.963Z,16.20
2023-04-23T13:09:10.428Z,16.10
2023-04-23T13:11:38.420Z,16.00
2023-04-23T13:14:05.905Z,16.10
2023-04-23T13:16:32.690Z,15.90
2023-04-23T13:19:00.137Z,15.90
2023-04-23T13:21:27.244Z,15.80
2023-04-23T13:23:53.946Z,15.40
2023-04-23T13:26:21.239Z,15.30
2023-04-23T13:28:47.911Z,15.20
2023-04-23T13:31:14.660Z,15.20
2023-04-23T13:33:41.473Z,15.20
2023-04-23T13:36:08.553Z,15.20
2023-04-23T13:38:35.298Z,15.10
2023-04-23T13:41:01.914Z,15.10
2023-04-23T13:43:28.602Z,15.00
2023-04-23T13:45:55.444Z,15.00
2023-04-23T13:48:23.610Z,14.80
2023-04-23T13:50:50.382Z,14.60
2023-04-23T13:53:17.101Z,14.30
2023-04-23T13:55:43.756Z,14.00
2023-04-23T13:58:12.238Z,13.70
2023-04-23T14:00:39.361Z,13.60
2023-04-23T14:03:06.131Z,13.60
2023-04-23T14:05:32.970Z,13.60
2023-04-23T14:07:59.667Z,13.60
2023-04-23T14:10:26.394Z,13.50
2023-04-23T14:12:54.141Z,13.50
2023-04-23T14:15:20.858Z,13.40
2023-04-23T14:17:47.721Z,13.40
2023-04-23T14:20:19.940Z,13.40
2023-04-23T14:22:50.998Z,13.30
2023-04-23T14:25:44.806Z,13.40
2023-04-23T14:28:26.676Z,13.30
2023-04-23T14:30:57.089Z,13.40
2023-04-23T14:33:24.180Z,13.40
2023-04-23T14:35:50.853Z,13.40
2023-04-23T14:38:17.969Z,13.40
2023-04-23T14:40:44.597Z,13.30
2023-04-23T14:43:15.579Z,13.30
2023-04-23T14:45:42.707Z,13.20
2023-04-23T14:48:09.357Z,13.20
2023-04-23T14:50:36.179Z,13.20
2023-04-23T14:53:06.899Z,13.20
2023-04-23T14:55:34.076Z,13.20
2023-04-23T14:58:01.238Z,13.10
2023-04-23T15:00:28.225Z,13.10
2023-04-23T15:02:55.068Z,13.00
2023-04-23T15:05:21.854Z,12.90
2023-04-23T15:07:48.520Z,12.90
2023-04-23T15:10:15.302Z,12.90
2023-04-23T15:12:43.597Z,12.90
2023-04-23T15:15:14.570Z,12.90
2023-04-23T15:17:41.292Z,12.90
2023-04-23T15:20:08.696Z,12.90
2023-04-23T15:22:35.430Z,12.90
2023-04-23T15:25:02.159Z,12.90
2023-04-23T15:27:28.923Z,12.80
2023-04-23T15:29:57.570Z,12.90
2023-04-23T15:32:24.251Z,12.90
2023-04-23T15:34:50.917Z,13.00
2023-04-23T15:37:19.731Z,13.00
2023-04-23T15:39:46.442Z,13.10
2023-04-23T15:42:14.676Z,13.10
2023-04-23T15:44:41.634Z,13.20
2023-04-23T15:47:08.421Z,13.20
2023-04-23T15:49:35.163Z,13.20
2023-04-23T15:52:01.809Z,13.20
2023-04-23T15:54:28.545Z,13.20
2023-04-23T15:56:56.863Z,13.20
2023-04-23T15:59:23.686Z,13.10
2023-04-23T16:01:50.597Z,13.10
2023-04-23T16:04:17.448Z,13.10
2023-04-23T16:06:44.555Z,13.10
2023-04-23T16:09:11.257Z,13.20
2023-04-23T16:11:38.332Z,13.20
2023-04-23T16:14:05.185Z,13.30
2023-04-23T16:16:32.002Z,13.30
2023-04-23T16:18:58.688Z,13.20
2023-04-23T16:21:25.334Z,13.20
2023-04-23T16:23:52.037Z,13.20
2023-04-23T16:26:18.858Z,13.10
2023-04-23T16:28:51.972Z,13.00
2023-04-23T16:31:27.938Z,13.00
2023-04-23T16:33:54.633Z,13.00
2023-04-23T16:36:21.356Z,13.10
2023-04-23T16:38:49.472Z,13.10
2023-04-23T16:41:17.622Z,13.20
2023-04-23T16:43:44.332Z,13.10
2023-04-23T16:46:11.180Z,13.10
2023-04-23T16:48:39.035Z,13.10
2023-04-23T16:51:05.723Z,13.10
2023-04-23T16:53:32.364Z,13.10
2023-04-23T16:55:59.551Z,13.10
2023-04-23T16:58:26.193Z,13.00
2023-04-23T17:00:52.878Z,13.00
2023-04-23T17:03:19.718Z,12.90
2023-04-23T17:05:48.457Z,12.90
2023-04-23T17:08:15.096Z,12.80
2023-04-23T17:10:41.716Z,12.70
2023-04-23T17:13:08.336Z,12.70
2023-04-23T17:15:35.020Z,12.80
2023-04-23T17:18:02.000Z,12.70
2023-04-23T17:20:28.917Z,12.80
2023-04-23T17:22:55.797Z,12.70
2023-04-23T17:25:22.572Z,12.80
2023-04-23T17:27:49.239Z,12.70
2023-04-23T17:30:16.139Z,12.70
2023-04-23T17:32:42.834Z,12.70
2023-04-23T17:35:10.910Z,12.70
2023-04-23T17:37:37.904Z,12.70
2023-04-23T17:40:05.748Z,12.80
2023-04-23T17:42:32.781Z,12.70
2023-04-23T17:44:59.437Z,12.80
2023-04-23T17:47:27.370Z,12.70
2023-04-23T17:49:54.276Z,12.70
2023-04-23T17:52:21.131Z,12.60
2023-04-23T17:54:47.932Z,12.50
2023-04-23T17:57:14.617Z,12.50
2023-04-23T17:59:41.721Z,12.40
2023-04-23T18:02:08.971Z,12.30
2023-04-23T18:04:36.554Z,12.30
2023-04-23T18:07:03.274Z,12.30
2023-04-23T18:09:30.100Z,12.30
2023-04-23T18:11:57.229Z,12.20
2023-04-23T18:14:23.946Z,12.20
2023-04-23T18:16:50.895Z,12.20
2023-04-23T18:19:17.584Z,12.30
2023-04-23T18:21:45.841Z,12.20
2023-04-23T18:24:13.233Z,12.20
2023-04-23T18:26:39.912Z,12.20
2023-04-23T18:29:06.587Z,12.20
2023-04-23T18:31:33.356Z,12.20
2023-04-23T18:34:03.569Z,12.20
2023-04-23T18:36:32.158Z,12.10
2023-04-23T18:38:58.857Z,12.20
2023-04-23T18:41:25.638Z,12.10
2023-04-23T18:43:52.310Z,12.10
2023-04-23T18:46:19.258Z,12.10
2023-04-23T18:48:47.288Z,12.10
2023-04-23T18:51:24.749Z,12.20
2023-04-23T18:53:51.572Z,12.30
2023-04-23T18:56:18.317Z,12.30
2023-04-23T18:58:44.992Z,12.30
2023-04-23T19:01:11.738Z,12.30
2023-04-23T19:03:38.507Z,12.30
2023-04-23T19:06:07.646Z,12.30
2023-04-23T19:08:37.528Z,12.20
2023-04-23T19:11:04.231Z,12.10
2023-04-23T19:13:30.976Z,12.10
2023-04-23T19:15:57.719Z,12.10
2023-04-23T19:18:24.426Z,12.10
2023-04-23T19:20:51.605Z,12.10
2023-04-23T19:23:18.362Z,12.10
2023-04-23T19:25:45.017Z,12.00
2023-04-23T19:28:11.700Z,12.00
2023-04-23T19:30:38.463Z,11.90
2023-04-23T19:33:05.397Z,11.90
2023-04-23T19:35:32.123Z,11.90
2023-04-23T19:37:59.338Z,11.90
2023-04-23T19:40:25.986Z,11.90
2023-04-23T19:42:52.678Z,11.90
2023-04-23T19:45:19.398Z,11.90
2023-04-23T19:47:46.363Z,11.90
2023-04-23T19:50:13.808Z,12.00
2023-04-23T19:52:41.158Z,12.00
2023-04-23T19:55:08.328Z,12.00
2023-04-23T19:57:35.657Z,12.00
2023-04-23T20:00:02.397Z,12.00
2023-04-23T20:02:33.487Z,11.90
2023-04-23T20:05:00.200Z,11.90
2023-04-23T20:07:26.939Z,11.80
2023-04-23T20:09:53.600Z,11.70
2023-04-23T20:12:20.360Z,11.60
2023-04-23T20:14:47.212Z,11.60
2023-04-23T20:17:13.962Z,11.50
2023-04-23T20:19:40.767Z,11.50
2023-04-23T20:22:07.644Z,11.50
2023-04-23T20:24:35.614Z,11.50
2023-04-23T20:27:02.415Z,11.50
2023-04-23T20:29:30.503Z,11.50
2023-04-23T20:31:57.269Z,11.40
2023-04-23T20:34:24.003Z,11.40
2023-04-23T20:36:51.128Z,11.40
2023-04-23T20:39:22.084Z,11.40
2023-04-23T20:41:50.428Z,11.30
2023-04-23T20:44:17.926Z,11.40
2023-04-23T20:46:45.268Z,11.30
2023-04-23T20:49:12.183Z,11.30
2023-04-23T20:51:38.824Z,11.30
2023-04-23T20:54:05.553Z,11.30
2023-04-23T20:56:32.260Z,11.30
2023-04-23T20:58:59.928Z,11.30
2023-04-23T21:01:26.738Z,11.30
2023-04-23T21:03:53.994Z,11.20
2023-04-23T21:06:21.214Z,11.20
2023-04-23T21:08:47.957Z,11.20
2023-04-23T21:11:16.217Z,11.20
2023-04-23T21:13:42.948Z,11.10
2023-04-23T21:16:11.229Z,11.10
2023-04-23T21:18:38.632Z,11.10
2023-04-23T21:21:05.376Z,11.10
2023-04-23T21:23:32.097Z,11.10
2023-04-23T21:25:58.909Z,11.00
2023-04-23T21:28:25.586Z,10.90
2023-04-23T21:30:53.430Z,10.80
2023-04-23T21:33:21.253Z,10.70
2023-04-23T21:35:48.525Z,10.60
2023-04-23T21:38:15.417Z,10.50
2023-04-23T21:40:42.159Z,10.40
2023-04-23T21:43:08.851Z,10.30
2023-04-23T21:45:35.933Z,10.30
2023-04-23T21:48:02.824Z,10.20
2023-04-23T21:50:29.957Z,10.20
2023-04-23T21:53:03.842Z,10.20
2023-04-23T21:55:31.467Z,10.20
2023-04-23T21:58:09.667Z,10.20
2023-04-23T22:00:44.311Z,10.20
2023-04-23T22:03:11.742Z,10.20
2023-04-23T22:05:39.290Z,10.20
2023-04-23T22:08:07.404Z,10.20
2023-04-23T22:10:34.342Z,10.20
2023-04-23T22:13:01.162Z,10.20
2023-04-23T22:15:28.892Z,10.20
2023-04-23T22:17:58.993Z,10.20
2023-04-23T22:20:25.716Z,10.20
2023-04-23T22:22:52.533Z,10.20
2023-04-23T22:25:19.407Z,10.10
2023-04-23T22:27:46.131Z,10.10
2023-04-23T22:30:12.974Z,10.10
2023-04-23T22:32:39.812Z,10.10
2023-04-23T22:35:07.697Z,10.10
2023-04-23T22:37:34.401Z,10.10
2023-04-23T22:40:01.187Z,10.10
2023-04-23T22:42:27.860Z,10.00
2023-04-23T22:44:54.537Z,10.10
2023-04-23T22:47:21.608Z,10.10
2023-04-23T22:49:48.349Z,10.10
2023-04-23T22:52:15.772Z,10.10
2023-04-23T22:54:42.805Z,10.00
2023-04-23T22:57:10.076Z,10.00
2023-04-23T22:59:37.619Z,10.00
2023-04-23T23:02:04.436Z,9.90
2023-04-23T23:04:31.177Z,9.90
2023-04-23T23:06:57.908Z,9.90
2023-04-23T23:09:24.873Z,9.80
2023-04-23T23:11:51.548Z,9.80
2023-04-23T23:14:18.416Z,9.80
2023-04-23T23:16:45.203Z,9.80
2023-04-23T23:19:12.567Z,9.70
2023-04-23T23:21:39.248Z,9.70
2023-04-23T23:24:06.197Z,9.70
2023-04-23T23:26:33.030Z,9.70
2023-04-23T23:28:59.673Z,9.60
2023-04-23T23:31:27.168Z,9.60
2023-04-23T23:33:54.068Z,9.60
2023-04-23T23:36:20.885Z,9.60
2023-04-23T23:38:47.548Z,9.50
2023-04-23T23:41:14.254Z,9.50
2023-04-23T23:43:40.988Z,9.50
2023-04-23T23:46:07.927Z,9.50
2023-04-23T23:48:34.658Z,9.50
2023-04-23T23:51:01.385Z,9.50
2023-04-23T23:53:28.060Z,9.40
2023-04-23T23:55:54.912Z,9.50
2023-04-23T23:58:21.589Z,9.50
